Time;durP1;ratioP1;P1;durP2;ratioP2;P2;SDS_P1;SDS_P2;PMS_P1;PMS_P2;Temp;Humidity;BMP_temperature;BMP_pressure;BME280_temperature;BME280_humidity;BME280_pressure;Samples;Min_cycle;Max_cycle;Signal;HPM_P1;HPM_P2
2023/03/11 00:00:53;;;;;;;18.60;2.90;;;;;;;1.50;100.00;100102.72;5049163;28;20485;-49
2023/03/11 00:03:22;;;;;;;16.90;3.20;;;;;;;1.49;99.86;100102.84;5049917;28;20562;-50
2023/03/11 00:05:50;;;;;;;14.32;3.45;;;;;;;1.38;100.00;100118.47;5053733;28;20486;-52
2023/03/11 00:08:19;;;;;;;13.80;3.30;;;;;;;1.43;100.00;100116.34;5048970;28;20064;-49
2023/03/11 00:10:50;;;;;;;12.10;3.50;;;;;;;1.51;99.70;100127.94;5053686;28;20049;-50
2023/03/11 00:13:16;;;;;;;21.33;3.85;;;;;;;1.50;100.00;100121.03;5049116;28;20445;-49
2023/03/11 00:15:47;;;;;;;28.40;3.90;;;;;;;1.43;98.21;100125.03;5053639;28;20053;-50
2023/03/11 00:18:15;;;;;;;13.52;3.22;;;;;;;1.54;100.00;100126.88;5045628;28;20033;-50
2023/03/11 00:20:44;;;;;;;14.38;3.47;;;;;;;1.41;99.51;100119.06;5053434;28;20056;-49
2023/03/11 00:23:12;;;;;;;18.92;3.22;;;;;;;1.61;99.82;100122.84;5053026;28;20041;-52
2023/03/11 00:25:42;;;;;;;13.90;3.40;;;;;;;1.39;98.72;100138.44;5049040;28;20099;-49
2023/03/11 00:28:10;;;;;;;14.38;3.85;;;;;;;1.43;99.76;100147.72;5053151;28;20037;-52
2023/03/11 00:30:37;;;;;;;18.25;3.78;;;;;;;1.43;99.19;100142.50;5048729;28;20499;-51
2023/03/11 00:33:05;;;;;;;16.10;3.42;;;;;;;1.49;98.28;100148.13;5053053;28;20052;-52
2023/03/11 00:35:33;;;;;;;15.40;3.30;;;;;;;1.37;95.95;100148.16;5045545;28;20091;-49
2023/03/11 00:38:04;;;;;;;12.63;2.65;;;;;;;1.36;97.07;100149.94;5051852;28;20045;-53
2023/03/11 00:40:33;;;;;;;11.73;3.00;;;;;;;1.54;98.74;100158.25;5049812;28;20513;-50
2023/03/11 00:43:01;;;;;;;22.20;3.28;;;;;;;1.52;97.74;100153.13;5051843;28;20053;-51
2023/03/11 00:45:29;;;;;;;18.23;2.55;;;;;;;1.50;98.73;100155.00;5049803;28;20072;-51
2023/03/11 00:47:56;;;;;;;21.08;3.92;;;;;;;1.42;98.55;100159.97;5051965;28;20490;-50
2023/03/11 00:50:27;;;;;;;25.65;3.55;;;;;;;1.44;99.07;100165.09;5050840;28;20069;-51
2023/03/11 00:52:54;;;;;;;16.20;3.40;;;;;;;1.46;98.96;100163.19;5049343;28;20048;-50
2023/03/11 00:55:24;;;;;;;22.13;3.03;;;;;;;1.45;99.46;100164.13;5052833;28;20063;-50
2023/03/11 00:57:54;;;;;;;13.18;3.17;;;;;;;1.64;99.30;100167.09;5048692;28;20053;-52
2023/03/11 01:00:24;;;;;;;12.57;3.57;;;;;;;1.58;97.92;100171.94;5052249;28;20542;-50
2023/03/11 01:02:53;;;;;;;30.60;3.53;;;;;;;1.63;99.25;100175.88;5048358;28;20379;-50
2023/03/11 01:05:25;;;;;;;23.35;3.83;;;;;;;1.78;95.49;100173.94;5052486;28;20057;-50
2023/03/11 01:07:52;;;;;;;16.15;3.60;;;;;;;1.68;97.20;100173.78;5045062;28;20048;-49
2023/03/11 01:10:18;;;;;;;18.35;3.53;;;;;;;1.65;96.98;100181.81;5052316;28;20087;-51
2023/03/11 01:12:45;;;;;;;16.50;3.22;;;;;;;1.75;98.00;100181.16;5048434;28;20534;-50
2023/03/11 01:15:17;;;;;;;18.60;3.78;;;;;;;1.70;97.25;100174.50;5052594;28;20076;-50
2023/03/11 01:17:44;;;;;;;21.38;2.90;;;;;;;1.68;96.23;100181.63;5048634;28;20072;-50
2023/03/11 01:20:12;;;;;;;13.50;3.42;;;;;;;1.73;97.37;100186.53;5052622;28;20044;-51
2023/03/11 01:22:39;;;;;;;21.85;3.17;;;;;;;1.60;97.31;100180.50;5048378;28;20091;-52
2023/03/11 01:25:06;;;;;;;13.55;3.28;;;;;;;1.47;95.74;100191.00;5049392;28;20455;-49
2023/03/11 01:27:33;;;;;;;20.92;3.80;;;;;;;1.55;96.25;100186.06;5052188;28;20071;-49
2023/03/11 01:30:00;;;;;;;24.60;3.20;;;;;;;1.57;96.38;100191.19;5048110;28;20045;-49
2023/03/11 01:32:27;;;;;;;12.18;2.80;;;;;;;1.53;96.59;100194.00;5052547;28;20044;-49
2023/03/11 01:34:53;;;;;;;12.68;3.10;;;;;;;1.60;96.03;100191.81;5048189;28;20136;-52
2023/03/11 01:37:20;;;;;;;23.80;3.05;;;;;;;1.49;96.51;100196.94;5052562;28;20395;-50
2023/03/11 01:39:47;;;;;;;20.92;3.38;;;;;;;1.52;96.78;100196.72;5045038;28;20064;-50
2023/03/11 01:42:14;;;;;;;15.98;3.85;;;;;;;1.61;97.14;100198.69;5051469;28;20441;-53
2023/03/11 01:44:41;;;;;;;17.30;3.35;;;;;;;1.59;97.15;100204.97;5048082;28;20041;-50
2023/03/11 01:47:14;;;;;;;14.77;3.40;;;;;;;1.70;97.27;100197.19;5052068;28;20486;-51
2023/03/11 01:49:41;;;;;;;17.10;3.88;;;;;;;1.88;94.21;100200.28;5048487;28;20754;-49
2023/03/11 01:52:08;;;;;;;15.07;3.60;;;;;;;1.79;95.41;100206.16;5052230;28;20394;-49
2023/03/11 01:54:43;;;;;;;21.85;3.30;;;;;;;1.78;96.09;100207.09;5030650;28;20712;-51
2023/03/11 01:57:12;;;;;;;23.52;4.65;;;;;;;1.82;95.06;100213.78;5068310;28;20059;-51
2023/03/11 01:59:45;;;;;;;14.60;3.10;;;;;;;1.67;95.16;100211.34;5071323;28;20052;-50
2023/03/11 02:02:19;;;;;;;23.77;3.80;;;;;;;1.75;94.10;100220.38;5067390;28;20044;-50
2023/03/11 02:04:46;;;;;;;16.48;3.80;;;;;;;1.54;93.08;100220.97;5072042;28;20053;-50
2023/03/11 02:07:14;;;;;;;14.90;3.30;;;;;;;1.48;93.25;100221.44;5067220;28;20076;-50
2023/03/11 02:09:42;;;;;;;21.02;3.45;;;;;;;1.46;93.12;100223.31;5063938;28;20055;-52
2023/03/11 02:12:12;;;;;;;20.15;3.30;;;;;;;1.44;94.41;100217.38;5045955;28;20072;-49
2023/03/11 02:14:44;;;;;;;23.87;3.70;;;;;;;1.41;93.49;100221.00;5056020;28;20056;-50
2023/03/11 02:17:11;;;;;;;20.02;3.80;;;;;;;1.32;93.93;100224.28;5055842;28;20041;-49
2023/03/11 02:20:11;;;;;;;18.95;3.33;;;;;;;1.36;92.88;100219.66;5051507;28;20049;-49
2023/03/11 02:22:41;;;;;;;11.65;3.47;;;;;;;1.30;95.17;100220.94;5050962;28;20284;-51
2023/03/11 02:25:23;;;;;;;17.48;3.47;;;;;;;1.27;91.70;100221.97;5055808;28;20103;-50
2023/03/11 02:27:52;;;;;;;18.45;3.17;;;;;;;1.21;91.33;100218.97;5050988;28;20131;-52
2023/03/11 02:30:24;;;;;;;15.35;3.28;;;;;;;1.22;90.90;100221.47;5052614;28;20053;-53
2023/03/11 02:32:52;;;;;;;10.85;3.10;;;;;;;1.10;91.38;100222.31;5055578;28;20071;-49
2023/03/11 02:35:19;;;;;;;13.70;3.00;;;;;;;1.18;92.24;100225.22;5051408;28;20553;-53
2023/03/11 02:37:48;;;;;;;23.60;3.22;;;;;;;0.96;93.87;100225.88;5055536;28;20099;-52
2023/03/11 02:43:02;;;;;;;11.38;2.60;;;;;;;0.82;91.13;100226.81;5111091;27;20876;-49
2023/03/11 02:45:29;;;;;;;16.90;2.77;;;;;;;0.82;92.39;100232.06;5103347;28;20036;-49
2023/03/11 02:47:58;;;;;;;9.55;2.70;;;;;;;0.76;91.59;100233.31;5110873;28;20065;-48
2023/03/11 02:50:27;;;;;;;17.35;3.28;;;;;;;0.72;91.50;100234.44;5108541;28;20382;-53
2023/03/11 02:52:54;;;;;;;17.42;3.15;;;;;;;0.76;91.62;100235.91;5109728;28;20146;-51
2023/03/11 02:55:21;;;;;;;13.73;3.00;;;;;;;0.88;90.04;100236.03;5106424;28;20048;-54
2023/03/11 02:57:48;;;;;;;16.60;2.80;;;;;;;0.75;90.07;100236.00;5110033;28;20118;-48
2023/03/11 03:00:16;;;;;;;19.65;3.35;;;;;;;0.75;90.13;100242.06;5109896;28;20044;-49
2023/03/11 03:02:51;;;;;;;25.35;3.38;;;;;;;0.80;88.45;100244.38;5103788;28;20036;-53
2023/03/11 03:05:20;;;;;;;13.50;2.50;;;;;;;0.84;88.28;100245.00;5110333;28;20405;-49
2023/03/11 03:07:49;;;;;;;18.77;3.00;;;;;;;0.88;88.51;100244.69;5106195;28;20036;-49
2023/03/11 03:10:19;;;;;;;8.38;2.55;;;;;;;0.82;88.03;100247.72;5110228;28;20067;-49
2023/03/11 03:12:46;;;;;;;12.25;2.60;;;;;;;0.82;89.79;100241.63;5105950;28;20064;-51
2023/03/11 03:15:14;;;;;;;10.52;2.75;;;;;;;0.69;89.60;100242.47;5110232;28;20047;-49
2023/03/11 03:17:43;;;;;;;12.10;2.70;;;;;;;0.66;90.02;100247.91;5119436;28;20681;-50
2023/03/11 03:20:11;;;;;;;14.60;2.33;;;;;;;0.74;88.73;100243.00;5127307;28;20048;-49
2023/03/11 03:22:42;;;;;;;18.02;2.95;;;;;;;0.88;87.04;100254.28;5130557;28;20446;-51
2023/03/11 03:25:11;;;;;;;15.80;2.58;;;;;;;0.70;88.56;100251.97;5126321;27;20628;-51
2023/03/11 03:27:38;;;;;;;16.13;2.63;;;;;;;0.76;89.74;100256.81;5130660;27;20096;-48
2023/03/11 03:30:08;;;;;;;12.77;2.83;;;;;;;0.60;88.01;100252.69;5125992;27;20392;-49
2023/03/11 03:32:36;;;;;;;12.93;2.85;;;;;;;0.74;87.52;100256.03;5130363;27;20044;-50
2023/03/11 03:35:05;;;;;;;20.02;2.90;;;;;;;0.76;88.20;100256.81;5121646;28;20120;-50
2023/03/11 03:37:50;;;;;;;10.70;2.22;;;;;;;0.76;88.47;100259.41;5130629;27;20052;-50
2023/03/11 03:40:19;;;;;;;12.50;2.30;;;;;;;0.65;87.13;100248.81;5115536;27;20051;-49
2023/03/11 03:42:46;;;;;;;14.25;2.67;;;;;;;0.77;87.56;100271.50;5106836;28;20127;-49
2023/03/11 03:45:13;;;;;;;13.93;2.78;;;;;;;0.82;86.60;100270.38;5109962;28;20044;-52
2023/03/11 03:47:40;;;;;;;11.77;2.90;;;;;;;0.72;86.43;100272.75;5105991;28;20032;-51
2023/03/11 03:50:09;;;;;;;13.90;3.45;;;;;;;0.64;87.31;100280.25;5110022;28;20047;-50
2023/03/11 03:52:37;;;;;;;17.48;3.00;;;;;;;0.53;87.82;100278.38;5097967;28;20048;-48
2023/03/11 03:55:05;;;;;;;10.45;2.47;;;;;;;0.50;87.94;100273.34;5073640;28;20195;-51
2023/03/11 03:57:31;;;;;;;12.38;2.42;;;;;;;0.36;87.99;100290.75;5090778;28;20095;-52
2023/03/11 03:59:58;;;;;;;10.65;2.97;;;;;;;0.40;88.77;100287.94;5094702;28;20048;-52
2023/03/11 04:02:25;;;;;;;11.82;2.40;;;;;;;0.35;90.32;100294.28;5089705;28;20525;-49
2023/03/11 04:04:53;;;;;;;10.05;2.55;;;;;;;0.43;89.21;100299.00;5094401;28;20036;-49
2023/03/11 04:07:20;;;;;;;15.73;2.65;;;;;;;0.43;86.98;100304.22;5091245;28;20048;-49
2023/03/11 04:09:47;;;;;;;11.10;2.13;;;;;;;0.34;88.50;100303.03;5092128;28;20048;-49
2023/03/11 04:12:16;;;;;;;14.05;2.65;;;;;;;0.25;89.53;100297.59;5095690;28;20068;-49
2023/03/11 04:14:43;;;;;;;9.07;2.10;;;;;;;0.26;89.64;100309.72;5091434;28;20135;-50
2023/03/11 04:17:13;;;;;;;9.18;2.58;;;;;;;0.18;89.36;100315.41;5095586;28;20177;-50
2023/03/11 04:19:40;;;;;;;9.70;2.42;;;;;;;0.28;88.50;100320.88;5091437;28;20044;-52
2023/03/11 04:22:09;;;;;;;14.02;2.70;;;;;;;0.21;88.58;100315.22;5095665;28;20051;-49
2023/03/11 04:24:36;;;;;;;17.73;2.80;;;;;;;0.18;90.07;100320.63;5087044;28;20039;-50
2023/03/11 04:27:03;;;;;;;11.00;2.53;;;;;;;0.30;88.50;100314.63;5095572;28;20048;-49
2023/03/11 04:29:32;;;;;;;13.45;2.45;;;;;;;0.19;90.36;100322.31;5091684;28;20117;-51
2023/03/11 04:31:59;;;;;;;7.90;2.40;;;;;;;0.21;91.75;100324.81;5095225;28;20048;-50
2023/03/11 04:34:25;;;;;;;12.38;2.38;;;;;;;0.36;89.83;100327.28;5092461;28;20048;-52
2023/03/11 04:36:53;;;;;;;17.25;2.67;;;;;;;0.19;89.75;100333.56;5093673;28;20089;-50
2023/03/11 04:39:25;;;;;;;15.07;2.83;;;;;;;0.28;88.18;100337.38;5092258;28;20130;-51
2023/03/11 04:41:53;;;;;;;15.02;2.45;;;;;;;0.24;88.75;100335.03;5090296;28;20101;-50
2023/03/11 04:44:22;;;;;;;8.98;2.15;;;;;;;0.16;89.48;100338.13;5095061;28;20515;-49
2023/03/11 04:46:49;;;;;;;12.57;2.60;;;;;;;0.16;91.74;100346.81;5090313;28;20047;-52
2023/03/11 04:49:16;;;;;;;13.25;2.28;;;;;;;0.19;91.35;100353.59;5093971;28;20044;-52
2023/03/11 04:51:43;;;;;;;10.77;2.50;;;;;;;0.19;90.18;100348.38;5090607;28;20071;-52
2023/03/11 04:54:12;;;;;;;13.60;2.88;;;;;;;0.13;89.94;100347.00;5094660;28;20044;-50
2023/03/11 04:56:39;;;;;;;19.85;2.85;;;;;;;0.26;89.87;100351.47;5090244;28;20155;-50
2023/03/11 04:59:06;;;;;;;18.30;2.95;;;;;;;0.37;88.73;100362.03;5090438;28;20050;-48
2023/03/11 05:01:35;;;;;;;9.90;2.30;;;;;;;0.27;89.07;100348.72;5094100;28;20063;-51
2023/03/11 05:04:04;;;;;;;10.07;2.38;;;;;;;0.32;89.55;100348.44;5089966;28;20173;-52
2023/03/11 05:06:31;;;;;;;9.48;2.30;;;;;;;0.23;88.38;100362.06;5094028;28;20055;-49
2023/03/11 05:09:00;;;;;;;7.72;2.25;;;;;;;0.17;88.84;100356.31;5090022;28;20032;-49
2023/03/11 05:11:28;;;;;;;14.68;2.97;;;;;;;0.21;89.09;100356.13;5094435;28;20051;-50
2023/03/11 05:13:55;;;;;;;10.35;2.47;;;;;;;0.12;88.92;100357.53;5087277;28;20048;-49
2023/03/11 05:16:22;;;;;;;9.23;2.47;;;;;;;0.11;88.31;100361.06;5094502;28;20382;-49
2023/03/11 05:18:49;;;;;;;9.18;2.28;;;;;;;0.16;89.03;100364.22;5090155;28;20040;-48
2023/03/11 05:21:16;;;;;;;9.90;2.38;;;;;;;0.14;89.20;100364.31;5094181;28;20032;-48
2023/03/11 05:23:44;;;;;;;15.63;2.88;;;;;;;0.28;89.47;100375.69;5089627;28;20040;-49
2023/03/11 05:26:12;;;;;;;10.80;2.53;;;;;;;0.31;88.69;100367.63;5093868;28;20444;-49
2023/03/11 05:28:41;;;;;;;8.38;2.53;;;;;;;0.38;87.92;100375.00;5089643;28;20036;-48
2023/03/11 05:31:09;;;;;;;11.23;2.60;;;;;;;0.21;87.62;100371.78;5090692;28;20047;-48
2023/03/11 05:33:38;;;;;;;14.50;2.40;;;;;;;0.24;88.81;100374.16;5094288;28;20536;-48
2023/03/11 05:36:09;;;;;;;13.27;2.53;;;;;;;0.27;88.54;100374.81;5089351;28;20047;-50
2023/03/11 05:38:39;;;;;;;11.13;2.60;;;;;;;0.42;87.55;100380.00;5094303;28;20151;-49
2023/03/11 05:41:06;;;;;;;14.40;2.88;;;;;;;0.45;88.81;100374.59;5089165;28;20074;-51
2023/03/11 05:43:33;;;;;;;11.10;2.30;;;;;;;0.42;89.79;100383.47;5093849;28;20047;-49
2023/03/11 05:46:00;;;;;;;17.35;2.88;;;;;;;0.44;89.74;100383.34;5089152;28;20105;-49
2023/03/11 05:48:27;;;;;;;12.45;2.35;;;;;;;0.51;86.96;100384.63;5092321;28;20077;-50
2023/03/11 05:50:53;;;;;;;12.18;2.30;;;;;;;0.42;87.08;100377.38;5093803;28;20126;-49
2023/03/11 05:53:21;;;;;;;10.85;2.42;;;;;;;0.58;87.33;100385.91;5088699;28;20495;-51
2023/03/11 05:55:57;;;;;;;13.40;2.75;;;;;;;0.34;87.06;100389.16;5102811;28;20171;-49
2023/03/11 05:58:26;;;;;;;8.70;2.78;;;;;;;0.27;87.57;100387.88;5068246;28;20135;-51
2023/03/11 06:00:53;;;;;;;11.25;3.13;;;;;;;0.18;87.66;100384.09;5071576;28;20048;-50
2023/03/11 06:03:21;;;;;;;12.02;3.33;;;;;;;0.30;88.22;100387.69;5065117;28;20041;-48
2023/03/11 06:05:49;;;;;;;10.32;2.80;;;;;;;0.37;87.85;100388.97;5073432;28;20055;-49
2023/03/11 06:08:16;;;;;;;8.88;3.20;;;;;;;0.31;87.79;100401.56;5068903;28;20044;-52
2023/03/11 06:10:44;;;;;;;16.17;3.30;;;;;;;0.47;87.97;100404.88;5090173;28;20052;-50
2023/03/11 06:13:12;;;;;;;13.93;3.55;;;;;;;0.43;88.78;100408.63;5088931;28;20040;-51
2023/03/11 06:15:46;;;;;;;11.90;3.03;;;;;;;0.49;86.73;100410.00;5093423;28;20047;-51
2023/03/11 06:18:13;;;;;;;16.38;3.55;;;;;;;0.47;85.84;100412.69;5085367;28;20044;-48
2023/03/11 06:20:40;;;;;;;12.55;2.90;;;;;;;0.48;86.93;100411.78;5093314;28;20043;-51
2023/03/11 06:23:07;;;;;;;8.27;2.65;;;;;;;0.42;86.47;100404.34;5093189;28;20044;-52
2023/03/11 06:25:34;;;;;;;11.60;2.90;;;;;;;0.35;86.79;100416.09;5088457;28;20131;-49
2023/03/11 06:28:01;;;;;;;10.27;2.78;;;;;;;0.34;86.44;100423.06;5092935;28;20123;-50
2023/03/11 06:30:29;;;;;;;11.48;2.80;;;;;;;0.18;87.14;100423.22;5088977;28;20055;-53
2023/03/11 06:33:03;;;;;;;9.70;2.88;;;;;;;0.19;86.81;100424.88;5093379;28;20040;-52
2023/03/11 06:35:30;;;;;;;19.27;3.17;;;;;;;0.34;85.97;100430.06;5084965;28;20464;-51
2023/03/11 06:37:57;;;;;;;10.48;2.75;;;;;;;0.40;86.31;100426.25;5093009;28;20131;-48
2023/03/11 06:40:23;;;;;;;12.10;2.78;;;;;;;0.29;87.01;100434.75;5090853;28;20044;-51
2023/03/11 06:42:51;;;;;;;15.35;3.03;;;;;;;0.33;87.09;100444.06;5091233;28;20079;-52
2023/03/11 06:45:20;;;;;;;10.35;2.80;;;;;;;0.48;85.63;100437.06;5091147;28;20090;-54
2023/03/11 06:47:48;;;;;;;11.18;2.83;;;;;;;0.53;86.96;100445.44;5091081;28;20066;-49
2023/03/11 06:50:15;;;;;;;10.52;2.60;;;;;;;0.50;88.32;100445.63;5090991;28;20074;-51
2023/03/11 06:52:42;;;;;;;17.20;3.25;;;;;;;0.49;87.84;100443.94;5087720;28;20428;-52
2023/03/11 06:55:09;;;;;;;17.05;3.38;;;;;;;0.60;88.14;100451.94;5092454;28;20052;-52
2023/03/11 06:57:36;;;;;;;10.70;2.95;;;;;;;0.66;88.55;100458.53;5088287;28;20276;-53
2023/03/11 07:00:11;;;;;;;13.95;3.45;;;;;;;0.86;88.05;100465.09;5092521;28;20052;-51
2023/03/11 07:02:39;;;;;;;10.20;2.80;;;;;;;0.82;86.26;100480.13;5088144;28;20637;-49
2023/03/11 07:05:07;;;;;;;25.45;3.30;;;;;;;0.87;85.91;100487.66;5090160;28;20101;-48
2023/03/11 07:07:34;;;;;;;13.85;3.03;;;;;;;0.98;85.70;100497.44;5084450;28;20047;-48
2023/03/11 07:10:01;;;;;;;11.48;3.42;;;;;;;1.03;85.97;100503.19;5089172;28;20043;-49
2023/03/11 07:12:29;;;;;;;15.77;3.50;;;;;;;1.01;86.12;100502.47;5092555;28;20044;-48
2023/03/11 07:14:56;;;;;;;15.15;3.28;;;;;;;1.05;84.17;100501.31;5088542;28;20078;-51
2023/03/11 07:17:23;;;;;;;14.43;3.10;;;;;;;0.94;84.51;100502.00;5092828;28;20442;-53
2023/03/11 07:19:51;;;;;;;21.02;3.67;;;;;;;0.90;85.89;100511.81;5088404;28;20553;-49
2023/03/11 07:22:19;;;;;;;9.57;3.13;;;;;;;0.87;85.33;100519.00;5092484;28;20405;-52
2023/03/11 07:24:47;;;;;;;14.93;3.20;;;;;;;0.73;87.23;100515.50;5088088;28;20052;-49
2023/03/11 07:27:14;;;;;;;13.95;3.33;;;;;;;0.78;86.20;100515.19;5089435;28;20397;-51
2023/03/11 07:29:41;;;;;;;14.40;3.40;;;;;;;0.56;86.59;100518.31;5096536;28;20126;-49
2023/03/11 07:32:08;;;;;;;11.10;2.92;;;;;;;0.62;86.70;100522.31;5091245;28;20436;-51
2023/03/11 07:34:35;;;;;;;12.07;3.15;;;;;;;0.80;87.23;100536.00;5096179;28;20127;-52
2023/03/11 07:37:02;;;;;;;11.30;3.17;;;;;;;0.81;86.91;100533.28;5091549;28;20127;-49
2023/03/11 07:39:29;;;;;;;11.98;3.30;;;;;;;0.90;87.44;100543.16;5096301;28;20078;-49
2023/03/11 07:41:56;;;;;;;14.15;3.63;;;;;;;1.06;84.31;100547.44;5088374;28;20048;-50
2023/03/11 07:44:32;;;;;;;15.15;3.50;;;;;;;1.16;84.29;100545.88;5096280;28;20052;-51
2023/03/11 07:47:01;;;;;;;17.20;3.50;;;;;;;1.14;82.39;100548.59;5091418;28;20493;-49
2023/03/11 07:49:28;;;;;;;11.32;3.53;;;;;;;1.10;82.83;100554.97;5096631;28;20044;-49
2023/03/11 07:51:55;;;;;;;20.75;3.95;;;;;;;1.10;83.34;100562.78;5091383;28;20044;-51
2023/03/11 07:54:21;;;;;;;12.23;3.33;;;;;;;1.17;85.08;100565.03;5095979;28;20539;-48
2023/03/11 07:56:48;;;;;;;10.30;3.08;;;;;;;1.22;82.47;100571.66;5078380;28;20051;-51
2023/03/11 07:59:15;;;;;;;11.45;3.25;;;;;;;1.39;83.75;100562.72;5092080;28;20044;-48
2023/03/11 08:01:45;;;;;;;12.63;2.95;;;;;;;1.31;83.27;100571.06;5093741;28;20508;-48
2023/03/11 08:04:15;;;;;;;11.57;3.28;;;;;;;1.61;78.77;100574.38;5091014;28;20051;-48
2023/03/11 08:06:44;;;;;;;10.00;2.95;;;;;;;1.58;81.27;100579.81;5095695;28;20066;-48
2023/03/11 08:09:12;;;;;;;17.88;4.25;;;;;;;1.63;80.53;100568.09;5091096;28;20048;-48
2023/03/11 08:11:38;;;;;;;12.90;3.05;;;;;;;1.72;81.83;100567.50;5095194;28;20459;-48
2023/03/11 08:14:05;;;;;;;10.60;2.90;;;;;;;1.89;80.30;100569.00;5086628;28;20040;-48
2023/03/11 08:16:32;;;;;;;9.98;2.70;;;;;;;1.83;78.67;100574.63;5095440;28;20044;-48
2023/03/11 08:18:59;;;;;;;10.32;2.90;;;;;;;1.81;78.85;100575.69;5091155;28;20051;-48
2023/03/11 08:21:30;;;;;;;18.00;3.10;;;;;;;1.86;78.60;100578.84;5095525;28;20063;-48
2023/03/11 08:23:59;;;;;;;8.27;2.47;;;;;;;2.05;77.84;100584.50;5090865;28;20040;-48
2023/03/11 08:26:26;;;;;;;10.13;2.60;;;;;;;2.19;75.34;100580.13;5095195;28;20052;-49
2023/03/11 08:28:54;;;;;;;8.77;2.97;;;;;;;2.18;75.86;100581.06;5091140;28;20058;-52
2023/03/11 08:31:24;;;;;;;8.93;2.67;;;;;;;2.39;76.14;100576.16;5092021;28;20063;-49
2023/03/11 08:33:53;;;;;;;13.57;3.00;;;;;;;2.53;76.76;100585.66;5095055;28;20507;-49
2023/03/11 08:36:20;;;;;;;10.35;2.80;;;;;;;2.58;77.58;100581.78;5104266;28;20127;-51
2023/03/11 08:38:47;;;;;;;8.27;2.47;;;;;;;2.72;75.07;100591.31;5114490;27;20059;-52
2023/03/11 08:41:14;;;;;;;9.00;2.70;;;;;;;2.85;74.33;100607.84;5090013;28;20516;-49
2023/03/11 08:43:43;;;;;;;14.02;2.60;;;;;;;2.63;73.25;100594.56;5094948;28;20044;-51
2023/03/11 08:46:32;;;;;;;9.13;2.83;;;;;;;2.75;76.26;100598.09;5086789;28;20052;-49
2023/03/11 08:49:01;;;;;;;8.80;2.67;;;;;;;2.82;74.98;100583.63;5094826;28;20048;-50
2023/03/11 08:51:30;;;;;;;11.10;2.90;;;;;;;3.02;73.56;100588.31;5090241;28;20070;-49
2023/03/11 08:53:57;;;;;;;8.43;2.67;;;;;;;2.98;74.14;100592.09;5094638;28;20363;-48
2023/03/11 08:56:24;;;;;;;9.68;2.67;;;;;;;3.15;75.06;100592.69;5090220;28;20047;-50
2023/03/11 08:58:51;;;;;;;13.38;2.80;;;;;;;3.16;72.34;100594.34;5094322;28;20048;-48
2023/03/11 09:01:19;;;;;;;18.52;2.58;;;;;;;3.22;72.60;100602.63;5086239;28;20067;-49
2023/03/11 09:03:46;;;;;;;11.88;2.45;;;;;;;3.18;70.90;100601.16;5094623;28;20044;-52
2023/03/11 09:06:15;;;;;;;10.38;2.10;;;;;;;3.22;68.66;100602.63;5094702;28;20097;-51
2023/03/11 09:08:43;;;;;;;12.23;2.42;;;;;;;3.24;66.10;100611.22;5090306;28;20417;-51
2023/03/11 09:11:12;;;;;;;8.77;2.25;;;;;;;3.30;68.68;100606.50;5094301;28;20069;-50
2023/03/11 09:13:40;;;;;;;10.75;2.22;;;;;;;3.27;66.45;100602.28;5089790;28;20048;-51
2023/03/11 09:16:12;;;;;;;10.20;2.10;;;;;;;3.62;66.35;100610.22;5094742;28;20113;-49
2023/03/11 09:18:39;;;;;;;12.85;2.47;;;;;;;3.82;62.66;100605.28;5086620;28;20070;-49
2023/03/11 09:21:06;;;;;;;10.63;2.25;;;;;;;3.58;59.97;100608.75;5093781;28;20070;-50
2023/03/11 09:23:33;;;;;;;8.88;2.33;;;;;;;3.84;60.21;100596.38;5089160;28;20039;-49
2023/03/11 09:26:00;;;;;;;10.38;2.40;;;;;;;4.41;61.35;100596.50;5094053;28;20044;-49
2023/03/11 09:28:26;;;;;;;6.85;1.83;;;;;;;5.13;54.15;100597.88;5089393;28;20063;-50
2023/03/11 09:30:53;;;;;;;9.75;2.40;;;;;;;5.57;51.42;100602.22;5094286;28;20398;-49
2023/03/11 09:33:20;;;;;;;7.80;2.33;;;;;;;6.60;49.92;100605.97;5089266;28;20416;-49
2023/03/11 09:35:47;;;;;;;15.07;3.10;;;;;;;6.92;47.18;100611.13;5090662;28;20051;-52
2023/03/11 09:38:14;;;;;;;10.38;2.78;;;;;;;7.59;43.22;100616.69;5093954;28;20178;-51
2023/03/11 09:40:56;;;;;;;15.30;2.90;;;;;;;6.20;46.66;100611.16;5088566;28;20048;-52
2023/03/11 09:43:40;;;;;;;9.05;2.15;;;;;;;6.69;46.74;100615.75;5093222;28;20044;-49
2023/03/11 09:46:46;;;;;;;10.10;1.98;;;;;;;8.04;42.77;100625.84;5089450;28;20040;-50
2023/03/11 09:49:33;;;;;;;9.32;1.80;;;;;;;6.37;44.97;100622.91;5093429;28;20044;-50
2023/03/11 09:52:19;;;;;;;9.18;1.83;;;;;;;5.24;46.79;100623.34;5090006;28;20052;-49
2023/03/11 09:54:51;;;;;;;9.23;2.05;;;;;;;4.68;48.50;100621.59;5093528;28;20044;-51
2023/03/11 09:57:23;;;;;;;9.73;2.40;;;;;;;4.88;49.22;100625.31;5070232;28;25204;-50
2023/03/11 09:59:50;;;;;;;6.10;2.08;;;;;;;6.41;45.82;100635.72;5092835;28;20040;-50
2023/03/11 10:02:20;;;;;;;9.85;1.98;;;;;;;8.71;43.07;100636.47;5087642;28;20062;-53
2023/03/11 10:05:13;;;;;;;9.43;2.00;;;;;;;9.97;38.71;100645.50;5091792;28;20169;-50
2023/03/11 10:07:42;;;;;;;10.73;2.05;;;;;;;9.79;39.07;100635.72;5088129;28;20095;-51
2023/03/11 10:10:12;;;;;;;14.07;2.40;;;;;;;10.38;37.96;100651.97;5072132;28;20446;-53
2023/03/11 10:13:18;;;;;;;14.15;2.60;;;;;;;10.65;37.15;100652.81;5109145;28;20051;-50
2023/03/11 10:16:10;;;;;;;6.97;2.08;;;;;;;8.64;38.73;100654.72;5100300;28;20040;-53
2023/03/11 10:19:17;;;;;;;10.50;3.50;;;;;;;7.79;39.98;100657.13;5088791;28;20048;-53
2023/03/11 10:22:01;;;;;;;13.35;2.50;;;;;;;7.45;42.88;100660.13;5088773;28;20055;-50
2023/03/11 10:24:39;;;;;;;13.63;2.65;;;;;;;6.57;43.52;100660.75;5092818;28;20388;-58
2023/03/11 10:27:15;;;;;;;10.50;2.08;;;;;;;7.01;41.61;100656.13;5084199;28;20044;-57
2023/03/11 10:29:53;;;;;;;13.88;2.15;;;;;;;8.69;40.37;100654.28;5094428;28;20044;-57
2023/03/11 10:32:34;;;;;;;10.68;4.38;;;;;;;9.42;35.71;100670.25;5071799;28;20075;-57
2023/03/11 10:35:15;;;;;;;8.48;2.80;;;;;;;10.63;33.79;100667.22;5072881;28;20068;-57
2023/03/11 10:37:51;;;;;;;13.68;3.13;;;;;;;10.88;33.79;100665.56;5068507;28;20032;-57
2023/03/11 10:40:39;;;;;;;11.98;2.92;;;;;;;11.88;34.48;100676.34;5079667;28;20509;-57
2023/03/11 10:43:31;;;;;;;8.73;2.30;;;;;;;10.86;33.39;100671.03;5072902;28;20469;-57
2023/03/11 10:45:58;;;;;;;11.65;2.80;;;;;;;11.12;34.97;100667.50;5083864;28;20051;-57
2023/03/11 10:48:25;;;;;;;16.42;2.38;;;;;;;11.41;35.13;100669.75;5076228;28;20048;-57
2023/03/11 10:51:00;;;;;;;12.35;2.20;;;;;;;11.00;34.74;100671.41;5068780;28;20040;-57
2023/03/11 10:53:28;;;;;;;12.15;2.20;;;;;;;9.59;36.39;100669.47;5107061;28;20040;-57
2023/03/11 10:55:57;;;;;;;12.77;2.38;;;;;;;10.15;35.36;100653.41;5088075;28;20409;-57
2023/03/11 10:58:27;;;;;;;27.35;2.90;;;;;;;10.69;34.66;100659.47;5100989;27;20489;-57
2023/03/11 11:01:15;;;;;;;9.85;2.55;;;;;;;10.04;32.76;100661.59;5099106;28;20032;-56
2023/03/11 11:03:48;;;;;;;13.90;2.80;;;;;;;9.72;35.11;100660.31;5099366;28;20357;-56
2023/03/11 11:06:34;;;;;;;20.05;3.65;;;;;;;9.00;37.84;100647.78;5092905;28;20075;-56
2023/03/11 11:09:23;;;;;;;23.77;5.72;;;;;;;7.98;40.80;100661.59;5110768;28;20039;-56
2023/03/11 11:12:13;;;;;;;13.25;3.75;;;;;;;7.63;39.98;100662.94;5108300;28;20494;-56
2023/03/11 11:14:43;;;;;;;25.45;7.68;;;;;;;6.66;40.37;100658.19;5106646;28;20507;-55
2023/03/11 11:17:17;;;;;;;16.05;4.20;;;;;;;6.05;42.46;100652.78;5101993;28;20051;-55
2023/03/11 11:19:45;;;;;;;10.65;2.85;;;;;;;5.61;43.56;100659.88;5091117;27;20036;-55
2023/03/11 11:22:17;;;;;;;17.02;3.40;;;;;;;5.77;44.70;100647.13;5092364;28;20047;-54
2023/03/11 11:24:46;;;;;;;12.35;3.38;;;;;;;5.52;43.48;100661.44;5107332;28;20594;-55
2023/03/11 11:27:23;;;;;;;17.33;3.25;;;;;;;6.11;43.12;100658.41;5075347;28;20039;-55
2023/03/11 11:30:15;;;;;;;21.77;4.97;;;;;;;5.74;42.77;100668.44;5106312;28;20136;-55
2023/03/11 11:32:42;;;;;;;11.75;2.80;;;;;;;6.21;42.75;100668.16;5099116;28;20052;-55
2023/03/11 11:35:13;;;;;;;18.98;4.45;;;;;;;6.28;42.02;100672.78;5065340;28;20418;-55
2023/03/11 11:37:46;;;;;;;9.45;2.47;;;;;;;6.34;43.49;100680.16;5093859;28;20066;-56
2023/03/11 11:42:54;;;;;;;19.67;3.63;;;;;;;7.59;40.84;100674.75;5104120;27;20206;-55
2023/03/11 11:45:37;;;;;;;;;;;;;;;8.23;39.62;100680.50;5088595;28;20405;-55